Time;durP1;ratioP1;P1;durP2;ratioP2;P2;SDS_P1;SDS_P2;PMS_P1;PMS_P2;Temp;Humidity;BMP_temperature;BMP_pressure;BME280_temperature;BME280_humidity;BME280_pressure;Samples;Min_cycle;Max_cycle;Signal;HPM_P1;HPM_P2
2022/04/25 00:00:52;;;;;;;11.93;3.50;;;;;;;9.73;100.00;101532.75;5061610;28;20437;-86
2022/04/25 00:03:19;;;;;;;12.38;3.10;;;;;;;9.85;100.00;101519.41;5070431;28;20047;-86
2022/04/25 00:05:46;;;;;;;18.42;4.70;;;;;;;9.63;100.00;101505.91;5071277;28;20064;-86
2022/04/25 00:08:13;;;;;;;14.73;3.88;;;;;;;9.47;100.00;101508.00;5069960;28;20142;-86
2022/04/25 00:10:40;;;;;;;12.07;3.45;;;;;;;9.72;100.00;101520.53;5068949;28;20048;-86
2022/04/25 00:13:07;;;;;;;12.77;3.10;;;;;;;9.70;100.00;101515.34;5069707;28;20478;-86
2022/04/25 00:15:34;;;;;;;10.43;2.65;;;;;;;9.74;100.00;101500.44;5070172;28;20434;-87
2022/04/25 00:18:01;;;;;;;9.77;3.03;;;;;;;9.50;100.00;101480.03;5059751;28;20059;-87
2022/04/25 00:20:28;;;;;;;16.30;3.70;;;;;;;9.59;100.00;101486.81;5058995;28;20052;-87
2022/04/25 00:22:54;;;;;;;9.27;2.92;;;;;;;9.84;100.00;101501.97;5070320;28;20044;-86
2022/04/25 00:25:21;;;;;;;14.73;3.83;;;;;;;9.68;100.00;101489.25;5070447;28;20053;-87
2022/04/25 00:27:48;;;;;;;15.00;3.33;;;;;;;9.60;100.00;101491.16;5070930;28;20049;-87
2022/04/25 00:30:14;;;;;;;11.32;3.45;;;;;;;9.78;100.00;101512.59;5069767;28;20040;-86
2022/04/25 00:32:41;;;;;;;14.73;3.63;;;;;;;9.42;100.00;101458.44;5070127;28;20052;-87
2022/04/25 00:35:08;;;;;;;12.68;3.80;;;;;;;9.93;100.00;101514.00;5071549;28;20048;-87
2022/04/25 00:37:35;;;;;;;13.23;3.38;;;;;;;9.79;100.00;101489.00;5070779;28;20724;-87
2022/04/25 00:40:02;;;;;;;10.48;3.22;;;;;;;9.96;100.00;101514.78;5069579;28;20383;-87
2022/04/25 00:42:29;;;;;;;12.57;3.95;;;;;;;9.81;100.00;101488.97;5071727;28;20159;-87
2022/04/25 00:44:59;;;;;;;16.52;3.00;;;;;;;9.95;100.00;101504.34;5054591;28;20060;-87
2022/04/25 00:47:27;;;;;;;13.60;3.55;;;;;;;9.88;100.00;101487.94;5074007;28;20837;-87
2022/04/25 00:49:54;;;;;;;10.52;3.45;;;;;;;9.82;100.00;101481.06;5072573;28;20114;-86
2022/04/25 00:52:21;;;;;;;18.92;3.80;;;;;;;9.98;100.00;101510.38;5073782;28;20041;-86
2022/04/25 00:54:48;;;;;;;12.50;3.40;;;;;;;9.83;100.00;101495.88;5073602;28;20056;-86
2022/04/25 00:57:15;;;;;;;11.93;3.45;;;;;;;9.94;100.00;101511.34;5074624;28;20527;-87
2022/04/25 00:59:43;;;;;;;13.13;3.53;;;;;;;9.97;100.00;101513.91;5072592;28;20052;-86
2022/04/25 01:02:10;;;;;;;11.40;3.65;;;;;;;9.94;100.00;101502.66;5072979;28;20410;-86
2022/04/25 01:04:37;;;;;;;6.97;2.47;;;;;;;10.08;100.00;101487.47;5073634;28;20106;-86
2022/04/25 01:07:04;;;;;;;13.20;3.28;;;;;;;9.85;100.00;101472.31;5074142;28;20059;-86
2022/04/25 01:09:31;;;;;;;11.98;3.22;;;;;;;10.08;100.00;101505.81;5072881;28;20052;-86
2022/04/25 01:11:59;;;;;;;11.23;2.75;;;;;;;9.78;100.00;101484.66;5067964;28;20045;-86
2022/04/25 01:14:26;;;;;;;11.70;2.83;;;;;;;9.94;100.00;101500.88;5074408;28;20052;-86
2022/04/25 01:16:53;;;;;;;9.27;3.05;;;;;;;9.45;100.00;101491.47;5072587;28;20052;-86
2022/04/25 01:19:20;;;;;;;11.95;3.22;;;;;;;9.55;100.00;101490.41;5065007;28;21556;-86
2022/04/25 01:21:54;;;;;;;9.75;2.80;;;;;;;9.86;100.00;101490.59;5072479;28;20052;-86
2022/04/25 01:27:18;;;;;;;14.00;3.10;;;;;;;9.83;100.00;101518.56;5074345;28;20051;-87
2022/04/25 01:29:46;;;;;;;10.10;2.97;;;;;;;9.92;100.00;101505.28;5071152;28;20053;-86
2022/04/25 01:32:14;;;;;;;11.90;3.22;;;;;;;9.96;100.00;101496.47;5073032;28;20044;-86
2022/04/25 01:34:42;;;;;;;9.05;2.47;;;;;;;9.96;100.00;101499.09;5073089;28;20080;-86
2022/04/25 01:37:13;;;;;;;14.27;3.60;;;;;;;9.99;100.00;101517.34;5072585;28;20063;-86
2022/04/25 01:39:44;;;;;;;15.00;3.45;;;;;;;9.84;100.00;101508.09;5058641;28;20161;-86
2022/04/25 01:42:10;;;;;;;11.65;3.80;;;;;;;9.83;100.00;101489.81;5066732;28;20063;-86
2022/04/25 01:44:37;;;;;;;7.38;2.53;;;;;;;10.09;100.00;101491.81;5072113;28;20053;-86
2022/04/25 01:47:04;;;;;;;9.00;3.00;;;;;;;9.84;100.00;101476.69;5073844;28;20049;-86
2022/04/25 01:49:35;;;;;;;9.10;2.70;;;;;;;9.87;100.00;101475.75;5062832;28;20041;-86
2022/04/25 01:52:16;;;;;;;11.48;2.53;;;;;;;10.17;100.00;101507.34;5073664;28;20049;-86
2022/04/25 01:54:43;;;;;;;8.75;3.10;;;;;;;9.90;100.00;101470.47;5071290;28;20052;-86
2022/04/25 01:57:09;;;;;;;8.75;3.10;;;;;;;9.70;100.00;101431.66;5073374;28;20079;-86
2022/04/25 01:59:36;;;;;;;9.10;2.78;;;;;;;9.73;100.00;101442.06;5070805;28;20056;-86
2022/04/25 02:02:03;;;;;;;9.73;3.13;;;;;;;10.13;100.00;101503.94;5071674;28;20051;-86
2022/04/25 02:04:30;;;;;;;11.27;3.13;;;;;;;10.17;100.00;101500.34;5053019;28;20072;-86
2022/04/25 02:06:59;;;;;;;11.73;3.25;;;;;;;9.92;100.00;101484.34;5052597;28;20045;-86
2022/04/25 02:09:31;;;;;;;8.30;3.20;;;;;;;10.07;100.00;101499.72;5057663;28;20075;-86
2022/04/25 02:11:58;;;;;;;10.48;2.95;;;;;;;9.83;100.00;101459.28;5071720;28;20419;-87
2022/04/25 02:14:29;;;;;;;11.32;3.20;;;;;;;10.13;100.00;101493.47;5051414;28;20044;-86
2022/04/25 02:16:58;;;;;;;10.90;3.08;;;;;;;10.08;100.00;101498.81;5053319;28;20133;-87
2022/04/25 02:19:26;;;;;;;8.20;2.88;;;;;;;10.08;100.00;101490.09;5070244;28;20702;-86
2022/04/25 02:21:53;;;;;;;8.57;3.05;;;;;;;9.94;100.00;101476.47;5084818;28;20056;-87
2022/04/25 02:24:20;;;;;;;9.57;2.97;;;;;;;9.97;100.00;101460.69;5052235;28;20051;-86
2022/04/25 02:26:49;;;;;;;11.55;2.90;;;;;;;10.18;100.00;101494.22;5052552;28;20052;-86
2022/04/25 02:29:18;;;;;;;8.60;2.45;;;;;;;10.44;100.00;101488.34;5050151;28;20049;-86
2022/04/25 02:31:45;;;;;;;9.93;2.83;;;;;;;9.87;100.00;101439.97;5070782;28;20504;-86
2022/04/25 02:34:12;;;;;;;9.50;3.47;;;;;;;10.08;100.00;101479.63;5069710;28;20052;-86
2022/04/25 02:36:39;;;;;;;10.00;3.30;;;;;;;9.91;100.00;101456.47;5051002;28;20060;-87
2022/04/25 02:39:06;;;;;;;8.90;3.40;;;;;;;10.14;100.00;101483.84;5051969;28;20049;-87
2022/04/25 02:41:32;;;;;;;10.77;3.58;;;;;;;9.98;100.00;101465.03;5101907;28;20048;-87
2022/04/25 02:43:59;;;;;;;12.10;3.65;;;;;;;9.98;100.00;101454.56;5087060;28;20063;-86
2022/04/25 02:46:26;;;;;;;9.93;3.38;;;;;;;10.00;100.00;101450.16;5084964;28;20379;-87
2022/04/25 02:48:53;;;;;;;13.30;3.33;;;;;;;10.00;100.00;101466.72;5053013;28;20053;-87
2022/04/25 02:51:19;;;;;;;10.48;3.70;;;;;;;9.73;100.00;101433.38;5068989;28;20050;-86
2022/04/25 02:53:46;;;;;;;11.80;3.20;;;;;;;10.17;100.00;101482.03;5071712;28;20041;-87
2022/04/25 02:56:13;;;;;;;7.63;2.72;;;;;;;10.08;100.00;101446.47;5062335;28;20044;-87
2022/04/25 02:58:40;;;;;;;10.63;3.50;;;;;;;10.25;100.00;101473.97;5070688;28;20130;-87
2022/04/25 03:01:08;;;;;;;9.27;2.55;;;;;;;10.25;100.00;101482.72;5070257;28;20058;-87
2022/04/25 03:03:37;;;;;;;7.85;2.58;;;;;;;9.99;100.00;101472.00;5071120;28;20047;-87
2022/04/25 03:06:07;;;;;;;9.57;2.58;;;;;;;10.14;100.00;101483.84;5070790;28;20056;-87
2022/04/25 03:08:34;;;;;;;10.50;3.05;;;;;;;9.89;100.00;101481.81;5082764;28;20052;-87
2022/04/25 03:11:10;;;;;;;10.65;3.67;;;;;;;9.82;100.00;101470.63;5075627;28;20049;-87
2022/04/25 03:13:38;;;;;;;14.00;4.88;;;;;;;9.61;100.00;101473.72;5065812;28;20398;-87
2022/04/25 03:16:06;;;;;;;10.23;2.72;;;;;;;9.88;100.00;101491.41;5050949;28;20800;-87
2022/04/25 03:18:33;;;;;;;12.88;3.47;;;;;;;9.74;100.00;101459.50;5086085;28;20083;-86
2022/04/25 03:21:01;;;;;;;9.82;3.03;;;;;;;9.81;100.00;101484.59;5069813;28;20397;-87
2022/04/25 03:23:28;;;;;;;8.95;2.92;;;;;;;9.76;100.00;101489.06;5071434;28;20056;-87
2022/04/25 03:25:55;;;;;;;13.73;3.35;;;;;;;9.81;100.00;101486.34;5070194;28;20106;-86
2022/04/25 03:28:22;;;;;;;10.30;2.78;;;;;;;9.91;100.00;101497.47;5070471;28;20066;-87
2022/04/25 03:30:49;;;;;;;13.60;3.30;;;;;;;9.88;100.00;101487.94;5064618;28;20048;-87
2022/04/25 03:33:16;;;;;;;12.27;3.78;;;;;;;9.98;100.00;101506.91;5083717;28;20045;-86
2022/04/25 03:35:52;;;;;;;6.90;2.00;;;;;;;9.98;100.00;101489.44;5050499;28;20145;-86
2022/04/25 03:38:21;;;;;;;12.60;3.40;;;;;;;9.78;100.00;101468.97;5066754;28;20052;-86
2022/04/25 03:40:48;;;;;;;12.10;4.53;;;;;;;9.96;100.00;101500.84;5069589;28;20051;-87
2022/04/25 03:43:17;;;;;;;9.13;3.45;;;;;;;9.72;100.00;101487.44;5054302;28;20049;-86
2022/04/25 03:45:44;;;;;;;10.80;3.38;;;;;;;9.68;100.00;101481.41;5070176;28;20052;-86
2022/04/25 03:48:11;;;;;;;11.80;3.38;;;;;;;9.92;100.00;101494.81;5070322;28;20052;-86
2022/04/25 03:50:38;;;;;;;14.43;3.97;;;;;;;9.67;100.00;101473.59;5068280;28;20083;-86
2022/04/25 03:53:08;;;;;;;12.48;4.38;;;;;;;9.87;100.00;101470.53;5070030;28;20655;-86
2022/04/25 03:58:21;;;;;;;13.65;4.10;;;;;;;9.84;100.00;101492.41;5071318;28;20048;-86
2022/04/25 04:00:49;;;;;;;13.20;3.88;;;;;;;9.88;100.00;101493.19;5071092;28;20052;-86
2022/04/25 04:03:17;;;;;;;11.45;3.35;;;;;;;9.69;100.00;101472.66;5071318;28;20044;-86
2022/04/25 04:05:48;;;;;;;19.35;4.18;;;;;;;9.86;100.00;101498.44;5070660;28;20052;-86
2022/04/25 04:08:15;;;;;;;16.90;4.47;;;;;;;9.60;100.00;101475.47;5070157;28;20049;-86
2022/04/25 04:10:42;;;;;;;13.95;3.67;;;;;;;9.94;100.00;101495.66;5068769;28;20048;-86
2022/04/25 04:13:09;;;;;;;14.30;3.75;;;;;;;9.55;100.00;101487.78;5055131;28;20056;-86
2022/04/25 04:15:36;;;;;;;12.65;3.65;;;;;;;9.83;100.00;101495.88;5066520;28;20134;-86
2022/04/25 04:18:06;;;;;;;12.77;4.10;;;;;;;9.77;100.00;101503.00;5070464;28;20128;-86
2022/04/25 04:20:33;;;;;;;11.85;3.70;;;;;;;9.85;100.00;101496.72;5072543;28;20055;-86
2022/04/25 04:23:01;;;;;;;9.40;3.22;;;;;;;9.73;100.00;101478.69;5075520;28;20045;-87
2022/04/25 04:25:27;;;;;;;10.52;3.22;;;;;;;9.82;100.00;101468.00;5074227;28;20052;-87
2022/04/25 04:27:54;;;;;;;11.45;3.75;;;;;;;9.57;100.00;101459.00;5074296;28;20056;-86
2022/04/25 04:30:21;;;;;;;15.43;3.92;;;;;;;9.41;100.00;101455.84;5074310;28;20070;-87
2022/04/25 04:32:48;;;;;;;13.45;4.18;;;;;;;9.63;100.00;101493.72;5074053;28;20083;-88
2022/04/25 04:36:17;;;;;;;16.73;5.00;;;;;;;9.65;100.00;101491.94;5075050;28;20056;-86
2022/04/25 04:38:05;;;;;;;11.07;3.75;;;;;;;9.62;100.00;101485.91;5067284;28;20049;-87
2022/04/25 04:40:33;;;;;;;13.00;3.88;;;;;;;9.68;100.00;101477.91;5063764;28;20090;-87
2022/04/25 04:43:00;;;;;;;10.65;4.03;;;;;;;9.72;100.00;101468.25;5059512;28;20037;-87
2022/04/25 04:45:27;;;;;;;17.98;4.50;;;;;;;10.00;100.00;101490.25;5098190;28;20051;-87
2022/04/25 04:47:54;;;;;;;14.70;4.05;;;;;;;9.92;100.00;101486.13;5074484;28;20454;-88
2022/04/25 04:50:22;;;;;;;17.15;4.78;;;;;;;9.88;100.00;101491.41;5072499;28;20498;-87
2022/04/25 04:52:56;;;;;;;12.82;4.68;;;;;;;9.99;100.00;101485.94;5074754;28;20045;-86
2022/04/25 04:55:23;;;;;;;13.15;4.40;;;;;;;9.89;100.00;101494.88;5072838;28;20650;-87
2022/04/25 04:57:51;;;;;;;8.63;3.45;;;;;;;9.88;100.00;101460.03;5073415;28;20549;-87
2022/04/25 05:00:19;;;;;;;15.90;4.35;;;;;;;10.00;100.00;101490.25;5079303;28;20051;-87
2022/04/25 05:02:46;;;;;;;20.83;4.75;;;;;;;9.84;100.00;101487.16;5073311;28;20055;-87
2022/04/25 05:05:13;;;;;;;12.43;3.58;;;;;;;9.79;100.00;101488.13;5073079;28;20056;-87
2022/04/25 05:07:41;;;;;;;12.82;3.33;;;;;;;9.61;100.00;101455.41;5052423;28;20135;-87
2022/04/25 05:10:09;;;;;;;18.10;5.45;;;;;;;9.43;100.00;101467.13;5061802;28;20044;-87
2022/04/25 05:12:49;;;;;;;21.20;6.32;;;;;;;9.78;100.00;101507.34;5065443;28;20104;-87
2022/04/25 05:15:17;;;;;;;15.00;4.47;;;;;;;9.75;100.00;101515.25;5053434;28;20049;-87
2022/04/25 05:17:48;;;;;;;13.75;4.20;;;;;;;9.59;100.00;101515.56;5053176;28;20044;-87
2022/04/25 05:20:17;;;;;;;13.93;4.40;;;;;;;9.56;100.00;101488.63;5063376;28;20068;-87
2022/04/25 05:22:45;;;;;;;15.80;4.25;;;;;;;9.66;100.00;101506.72;5068018;28;20045;-87
2022/04/25 05:25:19;;;;;;;12.32;3.95;;;;;;;9.68;100.00;101489.25;5064639;28;20124;-87
2022/04/25 05:27:48;;;;;;;9.98;3.38;;;;;;;9.84;100.00;101505.47;5066794;28;20053;-86
2022/04/25 05:30:16;;;;;;;17.02;5.05;;;;;;;9.80;100.00;101501.19;5057443;28;20045;-86
2022/04/25 05:32:50;;;;;;;13.13;4.13;;;;;;;9.72;100.00;101521.44;5062373;28;20151;-87
2022/04/25 05:35:21;;;;;;;16.75;4.82;;;;;;;9.80;100.00;101526.47;5065585;28;20070;-86
2022/04/25 05:37:48;;;;;;;15.25;4.70;;;;;;;9.68;100.00;101532.81;5062442;28;20501;-86
2022/04/25 05:40:16;;;;;;;15.20;4.43;;;;;;;9.68;100.00;101532.81;5060139;28;20044;-85
2022/04/25 05:42:44;;;;;;;18.83;4.85;;;;;;;9.70;100.00;101531.03;5066584;28;20048;-86
2022/04/25 05:45:14;;;;;;;23.15;6.00;;;;;;;9.76;100.00;101532.69;5061889;28;20453;-86
2022/04/25 05:47:43;;;;;;;16.45;4.82;;;;;;;9.71;100.00;101522.31;5064910;28;20485;-86
2022/04/25 05:52:57;;;;;;;14.65;4.72;;;;;;;9.72;100.00;101531.00;5066669;28;20410;-85
2022/04/25 05:55:25;;;;;;;21.65;5.85;;;;;;;9.83;100.00;101527.28;5062281;28;20048;-85
2022/04/25 05:57:51;;;;;;;15.57;4.90;;;;;;;9.62;100.00;101522.50;5064849;28;20060;-86
2022/04/25 06:00:27;;;;;;;9.00;3.45;;;;;;;9.88;100.00;101511.50;5061442;28;20053;-85
2022/04/25 06:02:57;;;;;;;15.07;4.85;;;;;;;9.91;100.00;101500.09;5064522;28;20578;-85
2022/04/25 06:05:24;;;;;;;17.13;4.68;;;;;;;10.15;100.00;101515.22;5063872;28;20063;-85
2022/04/25 06:07:52;;;;;;;10.95;4.43;;;;;;;10.02;100.00;101505.91;5065752;28;20056;-86
2022/04/25 06:10:20;;;;;;;14.57;4.82;;;;;;;9.92;100.00;101507.91;5090126;28;20519;-85
2022/04/25 06:12:50;;;;;;;16.42;4.07;;;;;;;10.09;100.00;101510.13;5063078;28;20057;-85
2022/04/25 06:15:18;;;;;;;21.27;5.28;;;;;;;10.07;100.00;101490.97;5070683;28;20066;-85
2022/04/25 06:17:49;;;;;;;14.65;4.15;;;;;;;9.89;100.00;101466.97;5052235;28;20055;-86
2022/04/25 06:20:17;;;;;;;17.25;4.07;;;;;;;10.11;100.00;101502.22;5060562;28;20054;-86
2022/04/25 06:22:56;;;;;;;16.40;4.28;;;;;;;10.22;100.00;101523.81;5069801;28;20052;-85
2022/04/25 06:25:24;;;;;;;8.43;3.15;;;;;;;10.03;100.00;101477.13;5058263;28;20044;-85
2022/04/25 06:27:52;;;;;;;13.25;4.28;;;;;;;10.21;100.00;101528.16;5058258;28;20048;-86
2022/04/25 06:30:23;;;;;;;11.25;3.67;;;;;;;10.36;100.00;101526.13;5064766;28;20072;-86
2022/04/25 06:32:52;;;;;;;14.23;4.90;;;;;;;10.05;100.00;101459.63;5059377;28;20041;-86
2022/04/25 06:35:20;;;;;;;12.98;4.05;;;;;;;10.36;100.00;101481.63;5064428;28;20060;-86
2022/04/25 06:37:48;;;;;;;10.18;3.90;;;;;;;10.68;100.00;101511.34;5063602;28;20064;-86
2022/04/25 06:40:15;;;;;;;18.83;4.88;;;;;;;10.24;100.00;101467.88;5063234;28;20052;-87
2022/04/25 06:42:42;;;;;;;12.90;4.15;;;;;;;10.47;100.00;101468.25;5060222;28;20390;-87
2022/04/25 06:45:09;;;;;;;16.85;5.05;;;;;;;11.09;100.00;101520.75;5056753;28;20080;-86
2022/04/25 06:47:35;;;;;;;18.35;3.88;;;;;;;10.83;100.00;101492.63;5060811;28;20052;-87
2022/04/25 06:50:03;;;;;;;11.77;4.78;;;;;;;11.00;100.00;101521.00;5069052;28;20045;-87
2022/04/25 06:52:29;;;;;;;11.70;4.50;;;;;;;10.89;100.00;101523.03;5065057;28;20056;-87
2022/04/25 06:54:57;;;;;;;17.48;5.50;;;;;;;11.04;100.00;101527.03;5060567;28;20135;-87
2022/04/25 06:57:24;;;;;;;14.30;4.50;;;;;;;10.87;100.00;101501.25;5065204;28;20058;-86
2022/04/25 06:59:51;;;;;;;14.90;4.57;;;;;;;11.10;100.00;101484.91;5072558;28;20653;-86
2022/04/25 07:02:17;;;;;;;13.82;6.50;;;;;;;11.01;100.00;101510.47;5072209;28;20048;-85
2022/04/25 07:04:46;;;;;;;10.27;3.72;;;;;;;11.04;100.00;101493.81;5072924;28;20450;-84
2022/04/25 07:07:12;;;;;;;13.32;5.05;;;;;;;11.36;100.00;101507.78;5073118;28;20094;-84
2022/04/25 07:09:39;;;;;;;14.43;4.82;;;;;;;11.31;100.00;101509.66;5069399;28;20045;-85
2022/04/25 07:12:06;;;;;;;17.10;5.13;;;;;;;11.16;100.00;101513.59;5073055;28;20056;-85
2022/04/25 07:14:33;;;;;;;16.67;5.97;;;;;;;11.01;100.00;101496.50;5073470;28;20040;-85
2022/04/25 07:17:03;;;;;;;13.90;4.07;;;;;;;11.17;100.00;101525.78;5073071;28;20474;-85
2022/04/25 07:19:31;;;;;;;13.90;4.55;;;;;;;11.41;100.00;101526.84;5072396;28;20135;-85
2022/04/25 07:30:15;;;;;;;11.88;4.40;;;;;;;12.09;100.00;101519.63;5072060;28;20052;-84
2022/04/25 07:32:42;;;;;;;15.93;5.68;;;;;;;12.37;100.00;101537.97;5072763;28;20094;-84
2022/04/25 07:35:09;;;;;;;12.52;4.25;;;;;;;12.18;100.00;101515.84;5065896;28;20128;-86
2022/04/25 07:37:36;;;;;;;13.27;4.57;;;;;;;12.53;100.00;101536.56;5059260;28;20410;-86
2022/04/25 07:40:06;;;;;;;14.43;4.85;;;;;;;12.18;100.00;101532.44;5072262;28;20055;-86
2022/04/25 07:42:33;;;;;;;15.10;4.85;;;;;;;11.90;100.00;101500.94;5058049;28;20490;-86
2022/04/25 07:45:01;;;;;;;10.50;4.03;;;;;;;11.43;100.00;101471.75;5051970;28;20453;-86
2022/04/25 07:47:27;;;;;;;13.00;4.68;;;;;;;12.05;100.00;101499.63;5058209;28;20048;-86
2022/04/25 07:49:54;;;;;;;12.95;4.53;;;;;;;12.17;100.00;101499.25;5071987;28;20052;-86
2022/04/25 07:52:21;;;;;;;14.82;4.60;;;;;;;12.13;100.00;101495.84;5072881;28;20048;-86
2022/04/25 07:54:48;;;;;;;16.00;6.47;;;;;;;12.19;100.00;101542.06;5075725;28;20547;-86
2022/04/25 07:57:15;;;;;;;11.95;3.90;;;;;;;12.32;100.00;101532.88;5075439;28;20052;-86
2022/04/25 07:59:42;;;;;;;11.98;4.10;;;;;;;12.28;100.00;101533.88;5075928;28;20052;-86
2022/04/25 08:02:09;;;;;;;18.45;5.78;;;;;;;12.17;100.00;101508.91;5076530;28;20059;-86
2022/04/25 08:04:36;;;;;;;15.43;5.40;;;;;;;12.12;100.00;101503.78;5075511;28;20086;-86
2022/04/25 08:07:03;;;;;;;14.77;5.40;;;;;;;12.23;100.00;101492.94;5061611;28;20045;-87
2022/04/25 08:09:30;;;;;;;13.82;5.32;;;;;;;12.08;100.00;101520.53;5064673;28;20758;-86
2022/04/25 08:20:13;;;;;;;12.50;4.53;;;;;;;12.83;100.00;101530.34;5059110;28;20104;-86
2022/04/25 08:22:40;;;;;;;12.88;4.80;;;;;;;13.53;100.00;101536.63;5071981;28;20048;-86
2022/04/25 08:25:08;;;;;;;17.77;6.43;;;;;;;13.58;100.00;101532.94;5074653;28;20375;-86
2022/04/25 08:27:40;;;;;;;11.73;4.82;;;;;;;14.13;100.00;101565.94;5055037;28;20170;-86
2022/04/25 08:30:08;;;;;;;13.60;4.35;;;;;;;14.16;100.00;101553.50;5060690;28;20048;-86
2022/04/25 08:32:34;;;;;;;13.98;5.75;;;;;;;13.68;100.00;101525.53;5075901;28;20052;-86
2022/04/25 08:35:02;;;;;;;15.68;5.45;;;;;;;13.89;100.00;101544.94;5076367;28;20542;-85
2022/04/25 08:37:28;;;;;;;19.00;5.90;;;;;;;14.23;100.00;101546.22;5075837;28;20044;-85
2022/04/25 08:40:02;;;;;;;;;;;;;;;14.76;100.00;101573.97;5073150;28;20048;-85
2022/04/25 08:42:31;;;;;;;14.75;4.47;;;;;;;14.38;100.00;101532.44;5074697;28;20255;-85
2022/04/25 08:45:10;;;;;;;20.00;5.30;;;;;;;14.63;100.00;101549.91;5074348;28;20056;-85
2022/04/25 08:47:44;;;;;;;11.13;3.83;;;;;;;15.05;100.00;101574.50;5075638;28;20059;-85
2022/04/25 08:50:12;;;;;;;17.45;5.13;;;;;;;14.91;100.00;101525.88;5075242;28;20139;-85
2022/04/25 08:52:40;;;;;;;11.10;3.83;;;;;;;14.71;100.00;101565.41;5074605;28;20051;-85
2022/04/25 08:55:08;;;;;;;15.77;4.57;;;;;;;14.60;100.00;101556.16;5065885;28;20072;-85
2022/04/25 08:57:36;;;;;;;10.13;3.53;;;;;;;15.11;100.00;101548.75;5074344;28;20267;-84
2022/04/25 09:00:05;;;;;;;15.43;3.88;;;;;;;15.12;100.00;101547.81;5075014;28;20080;-84
2022/04/25 09:02:38;;;;;;;11.85;4.10;;;;;;;14.73;100.00;101543.34;5075332;28;20052;-85
2022/04/25 09:05:07;;;;;;;14.95;4.25;;;;;;;15.21;100.00;101567.69;5073707;28;20053;-84
2022/04/25 09:07:37;;;;;;;15.38;3.42;;;;;;;14.86;98.13;101546.31;5053884;28;20140;-85
2022/04/25 09:10:13;;;;;;;10.27;3.40;;;;;;;14.82;94.27;101573.75;5061358;28;20044;-84
2022/04/25 09:12:42;;;;;;;13.55;4.90;;;;;;;15.19;100.00;101586.19;5075372;28;20056;-84
2022/04/25 09:15:22;;;;;;;11.73;3.05;;;;;;;14.86;85.94;101561.28;5074519;28;20548;-85
2022/04/25 09:17:54;;;;;;;9.77;3.72;;;;;;;15.50;91.41;101581.34;5074103;28;20098;-84
2022/04/25 09:20:21;;;;;;;10.23;3.45;;;;;;;15.27;82.19;101587.66;5073269;28;20048;-86
2022/04/25 09:22:48;;;;;;;7.93;3.28;;;;;;;15.23;82.72;101541.19;5065527;28;20088;-86
2022/04/25 09:25:17;;;;;;;11.35;3.25;;;;;;;15.51;82.32;101588.31;5064026;28;20053;-86
2022/04/25 09:28:12;;;;;;;9.98;3.47;;;;;;;14.98;83.88;101597.69;5062968;28;20055;-84
2022/04/25 09:31:00;;;;;;;13.60;3.28;;;;;;;14.84;77.46;101618.47;5064513;28;20098;-83
2022/04/25 09:33:27;;;;;;;13.10;3.70;;;;;;;14.88;79.37;101586.66;5058857;28;20078;-83
2022/04/25 09:35:56;;;;;;;17.50;3.92;;;;;;;15.11;82.60;101593.56;5072953;28;20045;-83
2022/04/25 09:38:34;;;;;;;9.00;3.13;;;;;;;15.66;78.26;101600.00;5067143;28;20044;-83
2022/04/25 09:41:01;;;;;;;13.55;3.47;;;;;;;15.77;77.39;101610.09;5067763;28;20048;-83
2022/04/25 09:43:30;;;;;;;8.55;3.67;;;;;;;14.74;78.43;101587.22;5071715;28;20045;-83
2022/04/25 09:46:02;;;;;;;9.77;2.90;;;;;;;14.78;78.56;101617.81;5070428;28;20045;-84
2022/04/25 09:48:29;;;;;;;10.00;3.47;;;;;;;14.49;76.66;101579.44;5063501;28;20053;-83
2022/04/25 09:51:11;;;;;;;11.60;3.05;;;;;;;14.53;75.03;101617.91;5063375;28;20048;-84
2022/04/25 09:53:52;;;;;;;9.10;2.80;;;;;;;14.69;73.08;101618.19;5091452;28;20048;-83
2022/04/25 09:56:20;;;;;;;10.30;3.00;;;;;;;15.09;77.53;101620.97;5066782;28;20100;-84
2022/04/25 09:59:07;;;;;;;11.57;3.45;;;;;;;14.20;76.00;101628.88;5052136;28;20052;-83
2022/04/25 10:01:37;;;;;;;8.52;2.92;;;;;;;14.40;74.23;101629.88;5068957;28;20045;-83
2022/04/25 10:04:06;;;;;;;10.00;2.60;;;;;;;14.52;70.12;101612.69;5072082;28;20052;-83
2022/04/25 10:06:34;;;;;;;9.93;3.00;;;;;;;14.53;69.25;101610.00;5071588;28;20045;-84
2022/04/25 10:09:05;;;;;;;11.95;3.72;;;;;;;14.35;71.35;101605.47;5070511;28;20048;-83
2022/04/25 10:11:34;;;;;;;12.23;3.10;;;;;;;14.55;71.69;101623.97;5068674;28;20047;-83
2022/04/25 10:14:02;;;;;;;10.57;3.17;;;;;;;14.28;73.43;101606.66;5072368;28;20060;-83
2022/04/25 10:16:29;;;;;;;11.60;4.28;;;;;;;14.12;75.40;101619.53;5071178;28;20050;-83
2022/04/25 10:18:57;;;;;;;7.25;2.60;;;;;;;14.65;71.35;101615.75;5072913;28;20127;-83
2022/04/25 10:21:29;;;;;;;10.48;2.60;;;;;;;14.63;69.82;101601.78;5067567;28;20051;-83
2022/04/25 10:23:57;;;;;;;9.05;2.50;;;;;;;15.14;69.91;101621.63;5057018;28;20056;-84
2022/04/25 10:26:29;;;;;;;8.45;3.08;;;;;;;14.99;66.54;101621.31;5068376;28;20049;-84
2022/04/25 10:28:57;;;;;;;10.27;2.97;;;;;;;14.99;67.75;101628.38;5052285;28;20048;-83
2022/04/25 10:31:27;;;;;;;10.23;3.25;;;;;;;14.95;69.30;101587.25;5060122;28;20084;-83
2022/04/25 10:33:58;;;;;;;11.73;3.35;;;;;;;14.98;71.31;101598.53;5071612;28;20078;-84
2022/04/25 10:36:37;;;;;;;10.27;2.80;;;;;;;14.60;68.52;101629.09;5071376;28;20083;-83
2022/04/25 10:39:24;;;;;;;11.10;3.10;;;;;;;14.37;72.40;101636.09;5072775;28;20058;-84
2022/04/25 10:44:43;;;;;;;12.05;3.20;;;;;;;14.58;69.86;101629.16;5072631;28;20051;-84
2022/04/25 10:47:25;;;;;;;8.85;2.88;;;;;;;13.97;73.80;101632.38;5072093;28;20048;-82
2022/04/25 10:49:51;;;;;;;9.90;3.03;;;;;;;14.03;70.46;101639.19;5070705;28;20072;-83
2022/04/25 10:52:33;;;;;;;11.65;4.13;;;;;;;14.07;73.57;101639.94;5067279;28;20055;-83
2022/04/25 10:55:31;;;;;;;8.85;2.63;;;;;;;14.65;71.38;101624.50;5052486;28;20129;-83
2022/04/25 10:58:04;;;;;;;7.80;2.90;;;;;;;15.07;65.73;101635.97;5070187;28;20052;-83
2022/04/25 11:00:40;;;;;;;7.30;2.88;;;;;;;15.17;66.79;101629.38;5059944;28;21341;-83
2022/04/25 11:03:23;;;;;;;8.50;2.53;;;;;;;14.71;64.84;101633.94;5071065;28;20048;-85
2022/04/25 11:05:55;;;;;;;10.10;3.42;;;;;;;14.72;66.27;101638.31;5059486;28;20119;-84
2022/04/25 11:08:34;;;;;;;11.37;2.80;;;;;;;14.30;66.89;101639.03;5050857;28;20057;-84
2022/04/25 11:11:08;;;;;;;10.82;2.90;;;;;;;14.19;67.41;101642.09;5064465;28;20286;-82
2022/04/25 11:13:57;;;;;;;10.10;3.00;;;;;;;14.36;66.74;101644.06;5070452;28;20135;-82
2022/04/25 11:16:26;;;;;;;6.75;2.45;;;;;;;14.60;65.84;101640.50;5071850;28;20398;-83
2022/04/25 11:19:13;;;;;;;9.60;3.50;;;;;;;14.62;66.64;101640.44;5070345;28;20055;-83
2022/04/25 11:21:49;;;;;;;9.60;3.78;;;;;;;14.15;67.65;101632.59;5069514;28;20044;-83
2022/04/25 11:24:42;;;;;;;9.38;2.90;;;;;;;14.83;66.90;101641.34;5070587;28;20135;-84
2022/04/25 11:27:11;;;;;;;11.75;3.00;;;;;;;14.52;66.49;101641.69;5048953;28;20059;-83
2022/04/25 11:30:16;;;;;;;10.70;2.80;;;;;;;14.59;65.58;101648.50;5051809;28;20049;-83
2022/04/25 11:32:43;;;;;;;8.82;2.40;;;;;;;14.58;64.95;101644.97;5068313;28;20058;-84
2022/04/25 11:35:11;;;;;;;8.75;2.30;;;;;;;14.19;63.95;101650.84;5057867;28;20048;-84
2022/04/25 11:37:37;;;;;;;8.88;2.38;;;;;;;14.20;63.34;101652.56;5064668;28;20144;-82
2022/04/25 11:40:07;;;;;;;13.30;2.85;;;;;;;14.12;64.83;101643.25;5058410;28;20705;-83
2022/04/25 11:42:36;;;;;;;7.47;2.38;;;;;;;13.91;67.21;101642.28;5060220;28;20475;-82
2022/04/25 11:45:04;;;;;;;7.65;2.22;;;;;;;14.12;65.47;101633.56;5069541;28;20461;-83
2022/04/25 11:47:32;;;;;;;9.60;2.55;;;;;;;14.78;65.89;101649.47;5070217;28;20051;-83
2022/04/25 11:50:03;;;;;;;8.68;2.63;;;;;;;14.75;66.45;101651.34;5069577;28;20760;-84
2022/04/25 11:52:30;;;;;;;9.63;2.47;;;;;;;14.44;66.36;101658.66;5070173;28;20705;-84
2022/04/25 11:54:57;;;;;;;8.98;2.95;;;;;;;14.21;66.67;101641.09;5070088;28;20375;-84